sensor_id;sensor_type;location;lat;lon;timestamp;temperature;humidity
23081;DHT22;11708;50.570;8.532;2022-08-19T00:02:50;21.60;99.90
23081;DHT22;11708;50.570;8.532;2022-08-19T00:07:42;21.50;99.90
23081;DHT22;11708;50.570;8.532;2022-08-19T00:10:13;21.50;99.90
23081;DHT22;11708;50.570;8.532;2022-08-19T00:12:40;21.50;99.90
23081;DHT22;11708;50.570;8.532;2022-08-19T00:15:09;21.50;99.90
23081;DHT22;11708;50.570;8.532;2022-08-19T00:17:42;21.80;99.90
23081;DHT22;11708;50.570;8.532;2022-08-19T00:20:11;21.40;99.90
23081;DHT22;11708;50.570;8.532;2022-08-19T00:22:38;21.50;99.90
23081;DHT22;11708;50.570;8.532;2022-08-19T00:25:05;21.40;99.90
23081;DHT22;11708;50.570;8.532;2022-08-19T00:27:31;21.20;99.90
23081;DHT22;11708;50.570;8.532;2022-08-19T00:29:56;21.40;99.90
23081;DHT22;11708;50.570;8.532;2022-08-19T00:32:24;21.40;99.90
23081;DHT22;11708;50.570;8.532;2022-08-19T00:34:51;21.30;99.90
23081;DHT22;11708;50.570;8.532;2022-08-19T00:39:45;21.30;99.90
23081;DHT22;11708;50.570;8.532;2022-08-19T00:42:10;21.30;99.90
23081;DHT22;11708;50.570;8.532;2022-08-19T00:44:37;21.30;99.90
23081;DHT22;11708;50.570;8.532;2022-08-19T00:47:02;21.30;99.90
23081;DHT22;11708;50.570;8.532;2022-08-19T00:49:38;21.30;99.90
23081;DHT22;11708;50.570;8.532;2022-08-19T00:52:09;21.30;99.90
23081;DHT22;11708;50.570;8.532;2022-08-19T00:54:38;21.30;99.90
23081;DHT22;11708;50.570;8.532;2022-08-19T00:57:08;21.20;99.90
23081;DHT22;11708;50.570;8.532;2022-08-19T00:59:38;21.20;99.90
23081;DHT22;11708;50.570;8.532;2022-08-19T01:02:06;21.20;99.90
23081;DHT22;11708;50.570;8.532;2022-08-19T01:06:59;21.10;99.90
23081;DHT22;11708;50.570;8.532;2022-08-19T01:09:26;21.10;99.90
23081;DHT22;11708;50.570;8.532;2022-08-19T01:11:52;21.10;99.90
23081;DHT22;11708;50.570;8.532;2022-08-19T01:14:18;21.10;99.90
23081;DHT22;11708;50.570;8.532;2022-08-19T01:16:45;21.00;99.90
23081;DHT22;11708;50.570;8.532;2022-08-19T01:19:32;20.90;99.90
23081;DHT22;11708;50.570;8.532;2022-08-19T01:22:03;20.90;99.90
23081;DHT22;11708;50.570;8.532;2022-08-19T01:32:12;20.70;99.90
23081;DHT22;11708;50.570;8.532;2022-08-19T01:34:40;20.70;99.90
23081;DHT22;11708;50.570;8.532;2022-08-19T01:37:08;21.40;99.90
23081;DHT22;11708;50.570;8.532;2022-08-19T01:39:36;20.70;99.90
23081;DHT22;11708;50.570;8.532;2022-08-19T01:42:03;20.60;99.90
23081;DHT22;11708;50.570;8.532;2022-08-19T01:44:29;20.60;99.90
23081;DHT22;11708;50.570;8.532;2022-08-19T01:46:55;20.60;99.90
23081;DHT22;11708;50.570;8.532;2022-08-19T01:49:24;20.60;99.90
23081;DHT22;11708;50.570;8.532;2022-08-19T01:51:54;20.30;99.90
23081;DHT22;11708;50.570;8.532;2022-08-19T01:54:22;20.60;99.90
23081;DHT22;11708;50.570;8.532;2022-08-19T01:56:51;20.80;99.90
23081;DHT22;11708;50.570;8.532;2022-08-19T01:59:19;20.60;99.90
23081;DHT22;11708;50.570;8.532;2022-08-19T02:04:12;20.60;99.90
23081;DHT22;11708;50.570;8.532;2022-08-19T02:06:37;20.50;99.90
23081;DHT22;11708;50.570;8.532;2022-08-19T02:09:05;20.50;99.90
23081;DHT22;11708;50.570;8.532;2022-08-19T02:11:33;20.50;99.90
23081;DHT22;11708;50.570;8.532;2022-08-19T02:14:00;20.50;99.90
23081;DHT22;11708;50.570;8.532;2022-08-19T02:16:30;20.50;99.90
23081;DHT22;11708;50.570;8.532;2022-08-19T02:18:56;20.40;99.90
23081;DHT22;11708;50.570;8.532;2022-08-19T02:21:22;20.50;99.90
23081;DHT22;11708;50.570;8.532;2022-08-19T02:23:49;20.40;99.90
23081;DHT22;11708;50.570;8.532;2022-08-19T02:28:43;20.40;99.90
23081;DHT22;11708;50.570;8.532;2022-08-19T02:31:15;20.40;99.90
23081;DHT22;11708;50.570;8.532;2022-08-19T02:33:41;20.40;99.90
23081;DHT22;11708;50.570;8.532;2022-08-19T02:36:08;20.40;99.90
23081;DHT22;11708;50.570;8.532;2022-08-19T02:38:35;20.30;99.90
23081;DHT22;11708;50.570;8.532;2022-08-19T02:41:05;20.30;99.90
23081;DHT22;11708;50.570;8.532;2022-08-19T02:43:32;20.30;99.90
23081;DHT22;11708;50.570;8.532;2022-08-19T02:45:57;20.30;99.90
23081;DHT22;11708;50.570;8.532;2022-08-19T02:48:25;20.20;99.90
23081;DHT22;11708;50.570;8.532;2022-08-19T02:50:52;20.10;99.90
23081;DHT22;11708;50.570;8.532;2022-08-19T02:53:26;20.20;99.90
23081;DHT22;11708;50.570;8.532;2022-08-19T03:00:55;20.20;99.90
23081;DHT22;11708;50.570;8.532;2022-08-19T03:03:21;20.10;99.90
23081;DHT22;11708;50.570;8.532;2022-08-19T03:10:45;20.10;99.90
23081;DHT22;11708;50.570;8.532;2022-08-19T03:13:13;20.00;99.90
23081;DHT22;11708;50.570;8.532;2022-08-19T03:15:42;20.00;99.90
23081;DHT22;11708;50.570;8.532;2022-08-19T03:21:29;20.00;99.90
23081;DHT22;11708;50.570;8.532;2022-08-19T03:23:57;20.00;99.90
23081;DHT22;11708;50.570;8.532;2022-08-19T03:26:23;20.00;99.90
23081;DHT22;11708;50.570;8.532;2022-08-19T03:28:49;20.00;99.90
23081;DHT22;11708;50.570;8.532;2022-08-19T03:31:18;20.00;99.90
23081;DHT22;11708;50.570;8.532;2022-08-19T03:33:45;19.90;99.90
23081;DHT22;11708;50.570;8.532;2022-08-19T03:36:16;20.00;99.90
23081;DHT22;11708;50.570;8.532;2022-08-19T03:38:45;20.00;99.90
23081;DHT22;11708;50.570;8.532;2022-08-19T03:41:17;20.20;99.90
23081;DHT22;11708;50.570;8.532;2022-08-19T03:43:43;20.00;99.90
23081;DHT22;11708;50.570;8.532;2022-08-19T03:46:14;20.00;99.90
23081;DHT22;11708;50.570;8.532;2022-08-19T03:48:42;20.00;99.90
23081;DHT22;11708;50.570;8.532;2022-08-19T03:51:23;20.60;99.90
23081;DHT22;11708;50.570;8.532;2022-08-19T03:56:16;19.90;99.90
23081;DHT22;11708;50.570;8.532;2022-08-19T03:58:43;20.30;99.90
23081;DHT22;11708;50.570;8.532;2022-08-19T04:01:17;19.90;99.90
23081;DHT22;11708;50.570;8.532;2022-08-19T04:03:44;19.90;99.90
23081;DHT22;11708;50.570;8.532;2022-08-19T04:06:14;19.80;99.90
23081;DHT22;11708;50.570;8.532;2022-08-19T04:11:12;19.90;99.90
23081;DHT22;11708;50.570;8.532;2022-08-19T04:13:38;19.90;99.90
23081;DHT22;11708;50.570;8.532;2022-08-19T04:16:05;19.80;99.90
23081;DHT22;11708;50.570;8.532;2022-08-19T04:18:32;19.80;99.90
23081;DHT22;11708;50.570;8.532;2022-08-19T04:20:59;19.80;99.90
23081;DHT22;11708;50.570;8.532;2022-08-19T04:23:26;19.80;99.90
23081;DHT22;11708;50.570;8.532;2022-08-19T04:25:54;20.50;99.90
23081;DHT22;11708;50.570;8.532;2022-08-19T04:28:23;19.80;99.90
23081;DHT22;11708;50.570;8.532;2022-08-19T04:30:51;19.80;99.90
23081;DHT22;11708;50.570;8.532;2022-08-19T04:33:22;19.80;99.90
23081;DHT22;11708;50.570;8.532;2022-08-19T04:35:49;19.70;99.90
23081;DHT22;11708;50.570;8.532;2022-08-19T04:38:18;19.80;99.90
23081;DHT22;11708;50.570;8.532;2022-08-19T04:40:49;19.70;99.90
23081;DHT22;11708;50.570;8.532;2022-08-19T04:43:36;19.70;99.90
23081;DHT22;11708;50.570;8.532;2022-08-19T04:46:10;19.70;99.90
23081;DHT22;11708;50.570;8.532;2022-08-19T04:51:07;19.70;99.90
23081;DHT22;11708;50.570;8.532;2022-08-19T04:53:35;19.70;99.90
23081;DHT22;11708;50.570;8.532;2022-08-19T04:56:06;19.70;99.90
23081;DHT22;11708;50.570;8.532;2022-08-19T04:58:33;19.70;99.90
23081;DHT22;11708;50.570;8.532;2022-08-19T05:00:59;19.70;99.90
23081;DHT22;11708;50.570;8.532;2022-08-19T05:03:25;20.80;99.90
23081;DHT22;11708;50.570;8.532;2022-08-19T05:08:20;19.70;99.90
23081;DHT22;11708;50.570;8.532;2022-08-19T05:10:48;19.60;99.90
23081;DHT22;11708;50.570;8.532;2022-08-19T05:13:16;19.40;99.90
23081;DHT22;11708;50.570;8.532;2022-08-19T05:15:43;19.60;99.90
23081;DHT22;11708;50.570;8.532;2022-08-19T05:18:09;19.60;99.90
23081;DHT22;11708;50.570;8.532;2022-08-19T05:20:54;19.70;99.90
23081;DHT22;11708;50.570;8.532;2022-08-19T05:23:38;19.60;99.90
23081;DHT22;11708;50.570;8.532;2022-08-19T05:26:04;19.60;99.90
23081;DHT22;11708;50.570;8.532;2022-08-19T05:30:57;19.60;99.90
23081;DHT22;11708;50.570;8.532;2022-08-19T05:33:22;19.70;99.90
23081;DHT22;11708;50.570;8.532;2022-08-19T05:35:50;19.60;99.90
23081;DHT22;11708;50.570;8.532;2022-08-19T05:38:18;19.60;99.90
23081;DHT22;11708;50.570;8.532;2022-08-19T05:40:45;19.60;99.90
23081;DHT22;11708;50.570;8.532;2022-08-19T05:45:43;19.70;99.90
23081;DHT22;11708;50.570;8.532;2022-08-19T05:48:10;20.40;99.90
23081;DHT22;11708;50.570;8.532;2022-08-19T05:50:41;19.80;99.90
23081;DHT22;11708;50.570;8.532;2022-08-19T05:53:07;19.80;99.90
23081;DHT22;11708;50.570;8.532;2022-08-19T05:55:35;19.90;99.90
23081;DHT22;11708;50.570;8.532;2022-08-19T06:02:55;20.10;99.90
23081;DHT22;11708;50.570;8.532;2022-08-19T06:05:21;20.10;99.90
23081;DHT22;11708;50.570;8.532;2022-08-19T06:15:11;20.30;99.90
23081;DHT22;11708;50.570;8.532;2022-08-19T06:17:38;20.80;99.90
23081;DHT22;11708;50.570;8.532;2022-08-19T06:20:10;20.50;99.90
23081;DHT22;11708;50.570;8.532;2022-08-19T06:22:46;20.60;99.90
23081;DHT22;11708;50.570;8.532;2022-08-19T06:27:45;20.70;99.90
23081;DHT22;11708;50.570;8.532;2022-08-19T06:30:11;21.20;99.90
23081;DHT22;11708;50.570;8.532;2022-08-19T06:32:37;20.70;99.90
23081;DHT22;11708;50.570;8.532;2022-08-19T06:35:03;20.80;99.90
23081;DHT22;11708;50.570;8.532;2022-08-19T06:44:48;21.10;99.90
23081;DHT22;11708;50.570;8.532;2022-08-19T06:47:17;21.30;99.90
23081;DHT22;11708;50.570;8.532;2022-08-19T06:49:44;21.20;99.90
23081;DHT22;11708;50.570;8.532;2022-08-19T06:52:10;21.30;99.90
23081;DHT22;11708;50.570;8.532;2022-08-19T06:54:40;21.40;99.90
23081;DHT22;11708;50.570;8.532;2022-08-19T06:57:07;21.50;99.90
23081;DHT22;11708;50.570;8.532;2022-08-19T07:02:04;21.70;99.90
23081;DHT22;11708;50.570;8.532;2022-08-19T07:04:34;21.70;99.90
23081;DHT22;11708;50.570;8.532;2022-08-19T07:07:10;21.80;99.90
23081;DHT22;11708;50.570;8.532;2022-08-19T07:09:39;22.10;99.90
23081;DHT22;11708;50.570;8.532;2022-08-19T07:12:07;22.40;99.90
23081;DHT22;11708;50.570;8.532;2022-08-19T07:14:36;22.20;99.90
23081;DHT22;11708;50.570;8.532;2022-08-19T07:17:05;22.20;99.90
23081;DHT22;11708;50.570;8.532;2022-08-19T07:19:32;22.30;99.90
23081;DHT22;11708;50.570;8.532;2022-08-19T07:21:58;23.10;99.90
23081;DHT22;11708;50.570;8.532;2022-08-19T07:24:26;22.50;99.90
23081;DHT22;11708;50.570;8.532;2022-08-19T07:26:55;22.40;99.90
23081;DHT22;11708;50.570;8.532;2022-08-19T07:29:22;22.50;99.90
23081;DHT22;11708;50.570;8.532;2022-08-19T07:31:50;22.60;99.90
23081;DHT22;11708;50.570;8.532;2022-08-19T07:34:16;22.70;99.90
23081;DHT22;11708;50.570;8.532;2022-08-19T07:36:44;22.70;99.90
23081;DHT22;11708;50.570;8.532;2022-08-19T07:39:19;22.90;99.90
23081;DHT22;11708;50.570;8.532;2022-08-19T07:41:46;22.90;99.90
23081;DHT22;11708;50.570;8.532;2022-08-19T07:44:13;23.00;99.90
23081;DHT22;11708;50.570;8.532;2022-08-19T07:46:41;23.00;99.90
23081;DHT22;11708;50.570;8.532;2022-08-19T07:49:08;23.10;99.90
23081;DHT22;11708;50.570;8.532;2022-08-19T07:51:39;23.20;99.90
23081;DHT22;11708;50.570;8.532;2022-08-19T07:54:05;23.30;99.90
23081;DHT22;11708;50.570;8.532;2022-08-19T07:56:31;23.40;99.90
23081;DHT22;11708;50.570;8.532;2022-08-19T08:01:30;23.40;99.90
23081;DHT22;11708;50.570;8.532;2022-08-19T08:03:57;23.40;99.90
23081;DHT22;11708;50.570;8.532;2022-08-19T08:06:42;23.50;99.90
23081;DHT22;11708;50.570;8.532;2022-08-19T08:09:34;23.50;99.90
23081;DHT22;11708;50.570;8.532;2022-08-19T08:12:19;23.60;99.90
23081;DHT22;11708;50.570;8.532;2022-08-19T08:14:53;23.70;99.90
23081;DHT22;11708;50.570;8.532;2022-08-19T08:17:22;24.10;99.90
23081;DHT22;11708;50.570;8.532;2022-08-19T08:22:17;23.80;99.90
23081;DHT22;11708;50.570;8.532;2022-08-19T08:25:07;23.80;99.90
23081;DHT22;11708;50.570;8.532;2022-08-19T08:27:36;23.50;99.90
23081;DHT22;11708;50.570;8.532;2022-08-19T08:30:08;23.80;99.90
23081;DHT22;11708;50.570;8.532;2022-08-19T08:32:37;23.80;99.90
23081;DHT22;11708;50.570;8.532;2022-08-19T08:35:08;23.80;99.90
23081;DHT22;11708;50.570;8.532;2022-08-19T08:37:34;23.90;99.90
23081;DHT22;11708;50.570;8.532;2022-08-19T08:40:19;24.10;99.90
23081;DHT22;11708;50.570;8.532;2022-08-19T08:45:49;24.00;99.90
23081;DHT22;11708;50.570;8.532;2022-08-19T08:48:44;24.00;99.90
23081;DHT22;11708;50.570;8.532;2022-08-19T08:51:18;24.00;99.90
23081;DHT22;11708;50.570;8.532;2022-08-19T08:53:47;24.00;99.90
23081;DHT22;11708;50.570;8.532;2022-08-19T08:56:14;24.10;99.90
23081;DHT22;11708;50.570;8.532;2022-08-19T08:58:54;24.10;99.90
23081;DHT22;11708;50.570;8.532;2022-08-19T09:01:21;24.10;99.90
23081;DHT22;11708;50.570;8.532;2022-08-19T09:03:47;24.20;99.90
23081;DHT22;11708;50.570;8.532;2022-08-19T09:06:21;24.30;99.90
23081;DHT22;11708;50.570;8.532;2022-08-19T09:14:14;24.40;99.90
23081;DHT22;11708;50.570;8.532;2022-08-19T09:16:43;24.50;99.90
23081;DHT22;11708;50.570;8.532;2022-08-19T09:19:09;24.60;99.90
23081;DHT22;11708;50.570;8.532;2022-08-19T09:21:36;24.80;99.90
23081;DHT22;11708;50.570;8.532;2022-08-19T09:24:02;24.90;99.90
23081;DHT22;11708;50.570;8.532;2022-08-19T09:26:30;25.10;99.90
23081;DHT22;11708;50.570;8.532;2022-08-19T09:28:57;25.20;99.90
23081;DHT22;11708;50.570;8.532;2022-08-19T09:31:27;25.20;99.90
23081;DHT22;11708;50.570;8.532;2022-08-19T09:33:54;25.20;99.90
23081;DHT22;11708;50.570;8.532;2022-08-19T09:36:23;25.20;99.90
23081;DHT22;11708;50.570;8.532;2022-08-19T09:38:50;25.30;99.90
23081;DHT22;11708;50.570;8.532;2022-08-19T09:41:19;25.30;99.90
23081;DHT22;11708;50.570;8.532;2022-08-19T09:43:47;25.40;99.90
23081;DHT22;11708;50.570;8.532;2022-08-19T09:46:13;25.50;99.90
23081;DHT22;11708;50.570;8.532;2022-08-19T09:48:41;25.50;99.90
23081;DHT22;11708;50.570;8.532;2022-08-19T09:51:11;25.50;99.90
23081;DHT22;11708;50.570;8.532;2022-08-19T09:53:38;25.50;99.90
23081;DHT22;11708;50.570;8.532;2022-08-19T09:56:04;25.90;99.90
23081;DHT22;11708;50.570;8.532;2022-08-19T09:58:31;25.60;99.90
23081;DHT22;11708;50.570;8.532;2022-08-19T10:00:58;25.60;99.90
23081;DHT22;11708;50.570;8.532;2022-08-19T10:05:51;25.60;99.90
23081;DHT22;11708;50.570;8.532;2022-08-19T10:08:23;25.60;99.90
23081;DHT22;11708;50.570;8.532;2022-08-19T10:10:50;25.70;99.90
23081;DHT22;11708;50.570;8.532;2022-08-19T10:13:19;25.60;99.90
23081;DHT22;11708;50.570;8.532;2022-08-19T10:15:48;25.60;99.90
23081;DHT22;11708;50.570;8.532;2022-08-19T10:18:16;25.60;99.90
23081;DHT22;11708;50.570;8.532;2022-08-19T10:20:50;25.70;99.90
23081;DHT22;11708;50.570;8.532;2022-08-19T10:23:16;25.80;99.90
23081;DHT22;11708;50.570;8.532;2022-08-19T10:25:43;25.90;99.90
23081;DHT22;11708;50.570;8.532;2022-08-19T10:28:09;25.90;99.90
23081;DHT22;11708;50.570;8.532;2022-08-19T10:30:40;26.10;99.90
23081;DHT22;11708;50.570;8.532;2022-08-19T10:40:27;26.30;99.90
23081;DHT22;11708;50.570;8.532;2022-08-19T10:42:56;26.30;99.90
23081;DHT22;11708;50.570;8.532;2022-08-19T10:47:52;26.50;99.90
23081;DHT22;11708;50.570;8.532;2022-08-19T10:50:18;26.50;99.90
23081;DHT22;11708;50.570;8.532;2022-08-19T10:53:04;26.60;99.90
23081;DHT22;11708;50.570;8.532;2022-08-19T10:55:31;26.80;99.90
23081;DHT22;11708;50.570;8.532;2022-08-19T10:58:18;27.00;99.90
23081;DHT22;11708;50.570;8.532;2022-08-19T11:00:56;27.20;99.90
23081;DHT22;11708;50.570;8.532;2022-08-19T11:03:23;27.30;99.90
23081;DHT22;11708;50.570;8.532;2022-08-19T11:06:03;27.20;99.90
23081;DHT22;11708;50.570;8.532;2022-08-19T11:08:30;27.30;99.90
23081;DHT22;11708;50.570;8.532;2022-08-19T11:10:59;27.40;99.90
23081;DHT22;11708;50.570;8.532;2022-08-19T11:13:36;27.50;99.90
23081;DHT22;11708;50.570;8.532;2022-08-19T11:16:08;27.70;99.90
23081;DHT22;11708;50.570;8.532;2022-08-19T11:18:36;28.10;99.90
23081;DHT22;11708;50.570;8.532;2022-08-19T11:21:18;27.70;99.90
23081;DHT22;11708;50.570;8.532;2022-08-19T11:23:46;27.70;99.90
23081;DHT22;11708;50.570;8.532;2022-08-19T11:26:13;27.80;99.90
23081;DHT22;11708;50.570;8.532;2022-08-19T11:28:39;28.00;99.90
23081;DHT22;11708;50.570;8.532;2022-08-19T11:31:14;28.30;99.50
23081;DHT22;11708;50.570;8.532;2022-08-19T11:33:41;28.70;98.40
23081;DHT22;11708;50.570;8.532;2022-08-19T11:36:07;29.00;98.40
23081;DHT22;11708;50.570;8.532;2022-08-19T11:38:33;29.30;96.70
23081;DHT22;11708;50.570;8.532;2022-08-19T11:41:03;29.40;96.10
23081;DHT22;11708;50.570;8.532;2022-08-19T11:43:29;29.50;96.40
23081;DHT22;11708;50.570;8.532;2022-08-19T11:48:23;29.60;95.40
23081;DHT22;11708;50.570;8.532;2022-08-19T11:50:49;29.60;95.10
23081;DHT22;11708;50.570;8.532;2022-08-19T11:53:19;29.30;94.50
23081;DHT22;11708;50.570;8.532;2022-08-19T11:58:12;29.20;94.70
23081;DHT22;11708;50.570;8.532;2022-08-19T12:00:39;29.40;94.70
23081;DHT22;11708;50.570;8.532;2022-08-19T12:03:05;29.60;94.30
23081;DHT22;11708;50.570;8.532;2022-08-19T12:05:31;29.90;93.90
23081;DHT22;11708;50.570;8.532;2022-08-19T12:07:57;30.10;93.50
23081;DHT22;11708;50.570;8.532;2022-08-19T12:10:23;30.30;92.90
23081;DHT22;11708;50.570;8.532;2022-08-19T12:12:50;30.40;91.90
23081;DHT22;11708;50.570;8.532;2022-08-19T12:15:16;30.60;91.20
23081;DHT22;11708;50.570;8.532;2022-08-19T12:17:42;30.60;90.20
23081;DHT22;11708;50.570;8.532;2022-08-19T12:20:09;30.90;89.80
23081;DHT22;11708;50.570;8.532;2022-08-19T12:22:37;30.90;88.40
23081;DHT22;11708;50.570;8.532;2022-08-19T12:25:04;30.90;87.30
23081;DHT22;11708;50.570;8.532;2022-08-19T12:27:33;30.80;87.70
23081;DHT22;11708;50.570;8.532;2022-08-19T12:29:58;30.70;88.40
23081;DHT22;11708;50.570;8.532;2022-08-19T12:32:26;30.60;88.70
23081;DHT22;11708;50.570;8.532;2022-08-19T12:34:52;30.50;89.10
23081;DHT22;11708;50.570;8.532;2022-08-19T12:37:17;30.40;88.70
23081;DHT22;11708;50.570;8.532;2022-08-19T12:39:44;30.20;86.80
23081;DHT22;11708;50.570;8.532;2022-08-19T12:42:10;30.10;87.00
23081;DHT22;11708;50.570;8.532;2022-08-19T12:44:41;30.10;86.10
23081;DHT22;11708;50.570;8.532;2022-08-19T12:47:10;30.10;86.80
23081;DHT22;11708;50.570;8.532;2022-08-19T12:49:36;30.30;87.30
23081;DHT22;11708;50.570;8.532;2022-08-19T12:52:05;30.70;86.60
23081;DHT22;11708;50.570;8.532;2022-08-19T12:54:33;31.00;84.60
23081;DHT22;11708;50.570;8.532;2022-08-19T12:56:59;31.20;83.90
23081;DHT22;11708;50.570;8.532;2022-08-19T12:59:26;31.30;83.50
23081;DHT22;11708;50.570;8.532;2022-08-19T13:01:52;31.30;83.10
23081;DHT22;11708;50.570;8.532;2022-08-19T13:06:43;31.20;80.30
23081;DHT22;11708;50.570;8.532;2022-08-19T13:09:09;31.00;80.40
23081;DHT22;11708;50.570;8.532;2022-08-19T13:11:37;30.70;80.00
23081;DHT22;11708;50.570;8.532;2022-08-19T13:14:03;30.60;81.30
23081;DHT22;11708;50.570;8.532;2022-08-19T13:16:29;30.70;81.90
23081;DHT22;11708;50.570;8.532;2022-08-19T13:18:56;31.00;81.00
23081;DHT22;11708;50.570;8.532;2022-08-19T13:21:24;31.30;80.60
23081;DHT22;11708;50.570;8.532;2022-08-19T13:23:51;31.70;79.20
23081;DHT22;11708;50.570;8.532;2022-08-19T13:28:44;32.10;77.40
23081;DHT22;11708;50.570;8.532;2022-08-19T13:31:31;32.20;78.10
23081;DHT22;11708;50.570;8.532;2022-08-19T13:34:17;32.30;74.20
23081;DHT22;11708;50.570;8.532;2022-08-19T13:36:44;32.20;75.40
23081;DHT22;11708;50.570;8.532;2022-08-19T13:39:10;32.00;74.60
23081;DHT22;11708;50.570;8.532;2022-08-19T13:41:40;31.90;75.10
23081;DHT22;11708;50.570;8.532;2022-08-19T13:44:08;31.60;75.20
23081;DHT22;11708;50.570;8.532;2022-08-19T13:46:33;31.30;75.40
23081;DHT22;11708;50.570;8.532;2022-08-19T13:48:59;31.00;76.40
23081;DHT22;11708;50.570;8.532;2022-08-19T13:51:25;30.90;77.20
23081;DHT22;11708;50.570;8.532;2022-08-19T13:53:50;30.90;76.70
23081;DHT22;11708;50.570;8.532;2022-08-19T13:56:17;30.90;75.60
23081;DHT22;11708;50.570;8.532;2022-08-19T13:58:45;31.00;74.90
23081;DHT22;11708;50.570;8.532;2022-08-19T14:01:10;31.20;74.00
23081;DHT22;11708;50.570;8.532;2022-08-19T14:03:36;31.30;72.70
23081;DHT22;11708;50.570;8.532;2022-08-19T14:06:03;31.40;72.60
23081;DHT22;11708;50.570;8.532;2022-08-19T14:08:29;32.10;73.80
23081;DHT22;11708;50.570;8.532;2022-08-19T14:10:58;31.90;72.20
23081;DHT22;11708;50.570;8.532;2022-08-19T14:13:24;32.00;72.30
23081;DHT22;11708;50.570;8.532;2022-08-19T14:15:50;32.20;72.50
23081;DHT22;11708;50.570;8.532;2022-08-19T14:18:17;32.40;72.60
23081;DHT22;11708;50.570;8.532;2022-08-19T14:20:44;32.60;71.40
23081;DHT22;11708;50.570;8.532;2022-08-19T14:23:10;32.60;71.90
23081;DHT22;11708;50.570;8.532;2022-08-19T14:25:37;32.90;70.90
23081;DHT22;11708;50.570;8.532;2022-08-19T14:28:03;33.20;70.00
23081;DHT22;11708;50.570;8.532;2022-08-19T14:30:34;33.40;69.10
23081;DHT22;11708;50.570;8.532;2022-08-19T14:33:01;33.60;68.10
23081;DHT22;11708;50.570;8.532;2022-08-19T14:35:28;33.50;67.80
23081;DHT22;11708;50.570;8.532;2022-08-19T14:37:55;33.60;67.00
23081;DHT22;11708;50.570;8.532;2022-08-19T14:40:22;33.60;67.30
23081;DHT22;11708;50.570;8.532;2022-08-19T14:42:56;33.70;66.50
23081;DHT22;11708;50.570;8.532;2022-08-19T14:45:25;33.60;65.20
23081;DHT22;11708;50.570;8.532;2022-08-19T14:47:51;33.80;65.20
23081;DHT22;11708;50.570;8.532;2022-08-19T14:50:18;33.80;64.80
23081;DHT22;11708;50.570;8.532;2022-08-19T14:52:44;34.00;65.10
23081;DHT22;11708;50.570;8.532;2022-08-19T14:55:10;34.10;65.40
23081;DHT22;11708;50.570;8.532;2022-08-19T14:57:36;34.50;63.40
23081;DHT22;11708;50.570;8.532;2022-08-19T15:00:03;34.70;64.00
23081;DHT22;11708;50.570;8.532;2022-08-19T15:02:29;34.70;62.60
23081;DHT22;11708;50.570;8.532;2022-08-19T15:04:54;34.50;62.90
23081;DHT22;11708;50.570;8.532;2022-08-19T15:07:21;34.60;63.30
23081;DHT22;11708;50.570;8.532;2022-08-19T15:09:49;34.90;61.80
23081;DHT22;11708;50.570;8.532;2022-08-19T15:12:16;34.50;62.10
23081;DHT22;11708;50.570;8.532;2022-08-19T15:14:41;34.50;61.80
23081;DHT22;11708;50.570;8.532;2022-08-19T15:24:27;34.60;59.50
23081;DHT22;11708;50.570;8.532;2022-08-19T15:26:54;34.80;59.90
23081;DHT22;11708;50.570;8.532;2022-08-19T15:29:21;34.80;59.20
23081;DHT22;11708;50.570;8.532;2022-08-19T15:31:50;34.80;59.00
23081;DHT22;11708;50.570;8.532;2022-08-19T15:34:16;34.90;58.10
23081;DHT22;11708;50.570;8.532;2022-08-19T15:36:42;34.90;59.00
23081;DHT22;11708;50.570;8.532;2022-08-19T15:39:08;34.80;58.80
23081;DHT22;11708;50.570;8.532;2022-08-19T15:41:35;35.10;59.00
23081;DHT22;11708;50.570;8.532;2022-08-19T15:44:07;35.50;58.60
23081;DHT22;11708;50.570;8.532;2022-08-19T15:46:36;35.80;57.50
23081;DHT22;11708;50.570;8.532;2022-08-19T15:51:31;35.30;55.00
23081;DHT22;11708;50.570;8.532;2022-08-19T15:54:00;34.70;57.00
23081;DHT22;11708;50.570;8.532;2022-08-19T15:56:26;34.30;57.30
23081;DHT22;11708;50.570;8.532;2022-08-19T15:59:11;33.90;58.80
23081;DHT22;11708;50.570;8.532;2022-08-19T16:01:55;34.00;59.30
23081;DHT22;11708;50.570;8.532;2022-08-19T16:04:40;34.40;59.60
23081;DHT22;11708;50.570;8.532;2022-08-19T16:07:24;34.80;58.90
23081;DHT22;11708;50.570;8.532;2022-08-19T16:09:49;35.40;58.00
23081;DHT22;11708;50.570;8.532;2022-08-19T16:12:15;35.80;57.60
23081;DHT22;11708;50.570;8.532;2022-08-19T16:14:41;36.30;56.40
23081;DHT22;11708;50.570;8.532;2022-08-19T16:17:06;35.80;55.20
23081;DHT22;11708;50.570;8.532;2022-08-19T16:19:36;35.60;56.20
23081;DHT22;11708;50.570;8.532;2022-08-19T16:22:03;35.70;56.00
23081;DHT22;11708;50.570;8.532;2022-08-19T16:24:30;35.90;55.30
23081;DHT22;11708;50.570;8.532;2022-08-19T16:26:56;36.20;54.80
23081;DHT22;11708;50.570;8.532;2022-08-19T16:29:22;37.40;53.10
23081;DHT22;11708;50.570;8.532;2022-08-19T16:31:48;36.90;53.10
23081;DHT22;11708;50.570;8.532;2022-08-19T16:36:41;37.20;50.60
23081;DHT22;11708;50.570;8.532;2022-08-19T16:39:09;36.60;50.90
23081;DHT22;11708;50.570;8.532;2022-08-19T16:46:30;36.60;50.50
23081;DHT22;11708;50.570;8.532;2022-08-19T16:48:56;36.50;51.30
23081;DHT22;11708;50.570;8.532;2022-08-19T16:51:21;36.70;51.10
23081;DHT22;11708;50.570;8.532;2022-08-19T16:53:47;36.30;51.90
23081;DHT22;11708;50.570;8.532;2022-08-19T16:56:16;36.20;51.50
23081;DHT22;11708;50.570;8.532;2022-08-19T16:58:41;36.00;52.30
23081;DHT22;11708;50.570;8.532;2022-08-19T17:01:08;35.90;52.20
23081;DHT22;11708;50.570;8.532;2022-08-19T17:03:35;35.60;52.20
23081;DHT22;11708;50.570;8.532;2022-08-19T17:08:29;34.60;53.00
23081;DHT22;11708;50.570;8.532;2022-08-19T17:10:56;34.30;54.10
23081;DHT22;11708;50.570;8.532;2022-08-19T17:13:26;34.30;54.40
23081;DHT22;11708;50.570;8.532;2022-08-19T17:18:22;33.10;55.60
23081;DHT22;11708;50.570;8.532;2022-08-19T17:20:49;32.80;56.50
23081;DHT22;11708;50.570;8.532;2022-08-19T17:28:17;31.90;57.70
23081;DHT22;11708;50.570;8.532;2022-08-19T17:30:44;31.70;59.10
23081;DHT22;11708;50.570;8.532;2022-08-19T17:33:11;31.60;59.40
23081;DHT22;11708;50.570;8.532;2022-08-19T17:35:37;31.30;60.20
23081;DHT22;11708;50.570;8.532;2022-08-19T17:38:09;31.00;60.80
23081;DHT22;11708;50.570;8.532;2022-08-19T17:40:35;30.70;61.70
23081;DHT22;11708;50.570;8.532;2022-08-19T17:43:01;30.40;62.20
23081;DHT22;11708;50.570;8.532;2022-08-19T17:47:54;30.20;62.20
23081;DHT22;11708;50.570;8.532;2022-08-19T17:50:22;30.00;63.30
23081;DHT22;11708;50.570;8.532;2022-08-19T17:52:48;29.70;64.80
23081;DHT22;11708;50.570;8.532;2022-08-19T17:55:17;29.60;64.40
23081;DHT22;11708;50.570;8.532;2022-08-19T18:00:10;29.40;64.50